Time;durP1;ratioP1;P1;durP2;ratioP2;P2;SDS_P1;SDS_P2;PMS_P1;PMS_P2;Temp;Humidity;BMP_temperature;BMP_pressure;BME280_temperature;BME280_humidity;BME280_pressure;Samples;Min_cycle;Max_cycle;Signal;HPM_P1;HPM_P2
2021/05/10 00:02:19;;;;;;;2.50;0.90;;;19.30;71.40;;;20.92;45.97;99123.38;5090151;28;20028;-77
2021/05/10 00:04:45;;;;;;;1.65;1.05;;;19.40;72.10;;;20.87;46.48;99138.16;5090535;28;20253;-77
2021/05/10 00:07:11;;;;;;;2.85;1.02;;;19.30;73.30;;;20.82;46.50;99122.53;5091089;28;20093;-76
2021/05/10 00:09:37;;;;;;;3.10;1.15;;;19.30;73.90;;;20.83;46.41;99129.78;5101179;28;20063;-77
2021/05/10 00:12:04;;;;;;;4.10;0.95;;;19.30;75.10;;;20.87;46.37;99135.34;5108342;28;20471;-77
2021/05/10 00:14:41;;;;;;;2.92;1.08;;;19.30;75.50;;;20.98;46.36;99138.53;5111270;28;20375;-77
2021/05/10 00:17:07;;;;;;;1.70;1.10;;;19.40;76.00;;;21.00;46.19;99138.84;5109462;28;20475;-78
2021/05/10 00:19:34;;;;;;;4.43;1.10;;;19.40;75.90;;;21.10;45.80;99137.66;5113209;28;20104;-80
2021/05/10 00:22:00;;;;;;;4.00;1.10;;;19.50;75.40;;;21.15;45.55;99133.44;5122812;28;20038;-79
2021/05/10 00:24:27;;;;;;;3.35;1.20;;;19.60;75.60;;;21.16;45.67;99132.97;5110440;28;20063;-76
2021/05/10 00:26:53;;;;;;;1.77;0.90;;;19.60;76.00;;;21.12;45.94;99131.53;5109490;28;20095;-77
2021/05/10 00:29:19;;;;;;;2.85;1.15;;;19.60;76.90;;;21.08;46.14;99128.81;5109578;28;20085;-78
2021/05/10 00:31:47;;;;;;;3.92;1.40;;;19.50;77.50;;;21.06;45.82;99125.66;5109706;28;20028;-77
2021/05/10 00:34:14;;;;;;;2.90;1.00;;;19.60;77.30;;;21.12;45.93;99132.34;5107634;28;20027;-77
2021/05/10 00:36:41;;;;;;;2.95;1.20;;;19.60;77.70;;;21.14;45.92;99124.13;5125144;28;20024;-77
2021/05/10 00:39:08;;;;;;;4.97;1.55;;;19.60;78.00;;;21.18;45.88;99126.84;5108239;28;20031;-77
2021/05/10 00:41:36;;;;;;;3.08;1.25;;;19.60;78.20;;;21.21;45.81;99126.69;5108883;28;20028;-76
2021/05/10 00:44:03;;;;;;;2.17;1.08;;;19.60;78.20;;;21.25;45.75;99127.34;5108835;28;20047;-78
2021/05/10 00:46:30;;;;;;;4.43;1.40;;;19.70;79.20;;;21.21;45.88;99126.69;5107825;28;20107;-76
2021/05/10 00:48:56;;;;;;;2.30;1.10;;;19.60;79.20;;;21.20;45.96;99125.09;5108783;28;20122;-76
2021/05/10 00:51:22;;;;;;;2.15;1.30;;;19.60;80.70;;;21.08;46.44;99130.84;5108618;28;20192;-77
2021/05/10 00:53:47;;;;;;;3.10;1.20;;;19.60;80.60;;;21.11;46.23;99127.91;5124317;27;20107;-77
2021/05/10 00:56:15;;;;;;;3.13;1.27;;;19.60;81.30;;;21.11;46.15;99133.59;5108997;28;20058;-76
2021/05/10 00:58:42;;;;;;;5.75;1.20;;;19.50;82.30;;;21.03;46.59;99137.91;5108401;28;20403;-76
2021/05/10 01:01:08;;;;;;;1.48;0.90;;;19.50;83.80;;;21.00;46.77;99133.97;5108909;28;20032;-76
2021/05/10 01:03:37;;;;;;;3.30;1.30;;;19.40;84.80;;;20.93;46.63;99145.59;5107009;28;20024;-77
2021/05/10 01:06:03;;;;;;;3.22;1.13;;;19.30;85.50;;;20.85;47.20;99140.66;5108311;28;20540;-78
2021/05/10 01:08:29;;;;;;;2.72;1.35;;;19.30;87.30;;;20.82;47.19;99142.38;5108299;28;20027;-75
2021/05/10 01:10:55;;;;;;;4.72;1.20;;;19.30;88.50;;;20.79;47.53;99134.00;5095366;28;20105;-79
2021/05/10 01:13:21;;;;;;;3.80;1.02;;;19.20;89.90;;;20.79;47.47;99117.78;5095078;28;20032;-76
2021/05/10 01:15:52;;;;;;;2.55;1.20;;;19.20;90.30;;;20.74;47.63;99115.53;5096219;28;20041;-76
2021/05/10 01:18:20;;;;;;;5.18;1.30;;;19.10;91.20;;;20.70;47.77;99120.56;5094955;28;20028;-76
2021/05/10 01:20:49;;;;;;;2.95;1.05;;;19.10;91.40;;;20.72;46.91;99120.88;5111576;28;20031;-77
2021/05/10 01:23:16;;;;;;;4.40;1.17;;;19.10;90.30;;;20.82;46.84;99125.38;5097298;28;20037;-75
2021/05/10 01:25:42;;;;;;;5.50;1.40;;;19.20;90.00;;;20.89;46.77;99133.59;5109177;28;20114;-77
2021/05/10 01:28:09;;;;;;;5.15;1.52;;;19.30;89.90;;;20.88;46.85;99122.72;5114045;28;20104;-77
2021/05/10 01:30:43;;;;;;;3.17;1.60;;;19.30;89.80;;;20.94;46.68;99120.84;5112073;28;20038;-77
2021/05/10 01:33:11;;;;;;;3.90;1.40;;;19.30;88.50;;;20.92;46.36;99118.47;5094836;28;20032;-77
2021/05/10 01:35:46;;;;;;;3.13;1.20;;;19.30;88.20;;;20.93;46.56;99122.88;5094628;28;20071;-78
2021/05/10 01:38:14;;;;;;;3.15;1.08;;;19.30;89.70;;;20.89;46.69;99099.56;5093256;28;20031;-75
2021/05/10 01:40:41;;;;;;;3.83;1.20;;;19.20;89.20;;;20.87;46.55;99102.03;5094317;28;20028;-76
2021/05/10 01:43:09;;;;;;;2.63;1.23;;;19.20;89.10;;;20.87;46.46;99107.72;5094572;28;20472;-76
2021/05/10 01:45:36;;;;;;;2.50;1.38;;;19.20;89.50;;;20.90;46.58;99108.88;5094710;28;20024;-77
2021/05/10 01:48:07;;;;;;;3.22;1.23;;;19.20;89.60;;;20.95;46.24;99116.75;5093100;28;20372;-77
2021/05/10 01:50:36;;;;;;;2.60;1.10;;;19.30;88.80;;;21.01;45.89;99109.22;5093877;28;20043;-76
2021/05/10 01:53:05;;;;;;;2.45;1.27;;;19.40;87.20;;;21.06;46.35;99108.63;5094449;28;20053;-76
2021/05/10 01:55:31;;;;;;;2.80;1.80;;;19.40;89.10;;;21.02;46.42;99102.28;5092990;28;20028;-79
2021/05/10 01:58:01;;;;;;;4.78;1.58;;;19.40;90.00;;;21.01;46.16;99103.53;5094125;28;20415;-77
2021/05/10 02:00:38;;;;;;;2.05;1.10;;;19.40;88.10;;;21.18;45.46;99090.72;5093994;28;20089;-76
2021/05/10 02:03:11;;;;;;;2.75;1.50;;;19.50;85.20;;;21.20;46.30;99098.75;5094268;28;20024;-79
2021/05/10 02:05:38;;;;;;;2.53;1.27;;;19.50;88.30;;;21.22;45.66;99096.25;5094303;28;20024;-77
2021/05/10 02:08:09;;;;;;;3.22;1.27;;;19.60;85.20;;;21.24;45.22;99100.19;5094658;28;20395;-77
2021/05/10 02:10:47;;;;;;;6.47;1.40;;;19.70;83.30;;;21.33;45.11;99100.22;5095346;28;20470;-78
2021/05/10 02:13:21;;;;;;;3.95;1.35;;;19.60;83.40;;;21.26;45.48;99094.84;5110443;28;20386;-77
2021/05/10 02:15:47;;;;;;;3.05;1.15;;;19.60;84.50;;;21.14;45.74;99080.75;5094734;28;20185;-79
2021/05/10 02:18:23;;;;;;;3.70;1.33;;;19.50;85.20;;;21.09;46.04;99076.50;5094457;28;20027;-77
2021/05/10 02:20:50;;;;;;;3.60;1.50;;;19.50;85.70;;;21.09;45.98;99079.34;5093993;28;20028;-77
2021/05/10 02:23:21;;;;;;;4.28;1.20;;;19.40;86.70;;;21.07;45.82;99081.81;5093700;28;20035;-77
2021/05/10 02:25:53;;;;;;;1.40;0.90;;;19.40;86.00;;;21.04;46.17;99079.91;5094413;28;20073;-77
2021/05/10 02:28:24;;;;;;;2.05;0.98;;;19.30;87.60;;;20.97;46.45;99094.38;5094229;28;20096;-79
2021/05/10 02:30:54;;;;;;;1.90;1.20;;;19.30;89.90;;;20.85;46.97;99098.91;5095175;28;20074;-80
2021/05/10 02:33:25;;;;;;;3.45;1.25;;;19.20;92.00;;;20.75;46.86;99104.97;5093455;28;20028;-77
2021/05/10 02:35:54;;;;;;;2.25;1.38;;;19.10;91.40;;;20.73;47.16;99104.66;5094064;28;20365;-77
2021/05/10 02:38:22;;;;;;;3.28;1.20;;;19.00;92.10;;;20.69;47.33;99093.44;5092966;28;20437;-77
2021/05/10 02:40:50;;;;;;;3.00;1.27;;;19.00;92.90;;;20.61;47.47;99103.50;5094530;28;20356;-78
2021/05/10 02:43:20;;;;;;;3.35;1.30;;;19.00;92.90;;;20.69;46.94;99090.59;5095682;28;20028;-80
2021/05/10 02:45:47;;;;;;;3.65;0.93;;;19.10;91.70;;;20.77;47.07;99085.47;5106495;28;20028;-81
2021/05/10 02:48:14;;;;;;;3.95;1.20;;;19.10;92.20;;;20.77;46.99;99086.25;5099480;28;20099;-77
2021/05/10 02:50:41;;;;;;;2.05;1.25;;;19.20;91.80;;;21.01;45.62;99075.16;5091727;28;20029;-76
2021/05/10 02:53:07;;;;;;;3.72;1.05;;;19.50;85.90;;;21.21;45.34;99074.78;5092893;28;20043;-79
2021/05/10 02:55:33;;;;;;;2.58;1.17;;;19.60;85.30;;;21.31;45.00;99073.56;5092954;28;20062;-76
2021/05/10 02:57:59;;;;;;;1.83;1.17;;;19.70;83.50;;;21.34;45.04;99061.28;5091581;28;20040;-77
2021/05/10 03:00:28;;;;;;;2.25;1.00;;;19.70;84.10;;;21.33;45.22;99071.03;5093397;28;20101;-76
2021/05/10 03:02:56;;;;;;;3.05;1.15;;;19.60;84.60;;;21.29;45.41;99059.03;5093207;28;20484;-77
2021/05/10 03:05:25;;;;;;;1.70;0.95;;;19.60;84.60;;;21.26;45.31;99066.44;5092917;28;20442;-76
2021/05/10 03:07:51;;;;;;;2.90;0.95;;;19.60;84.20;;;21.22;45.46;99062.97;5092867;28;20032;-76
2021/05/10 03:10:24;;;;;;;3.15;1.40;;;19.60;84.50;;;21.24;45.49;99059.66;5075608;28;20385;-75
2021/05/10 03:12:53;;;;;;;3.10;1.40;;;19.60;84.40;;;21.21;45.61;99058.56;5071050;28;20028;-77
2021/05/10 03:15:22;;;;;;;4.95;1.25;;;19.60;84.70;;;21.19;45.41;99044.03;5072674;28;20036;-79
2021/05/10 03:17:52;;;;;;;5.93;1.30;;;19.60;84.90;;;21.11;45.84;99042.75;5072486;28;20031;-76
2021/05/10 03:20:23;;;;;;;6.25;1.13;;;19.50;86.50;;;21.03;45.94;99053.56;5071656;28;20032;-77
2021/05/10 03:22:52;;;;;;;2.17;1.15;;;19.40;86.30;;;20.96;46.35;99059.53;5071434;28;20143;-77
2021/05/10 03:25:21;;;;;;;3.83;1.50;;;19.30;88.90;;;20.88;46.44;99072.41;5072964;28;20091;-79
2021/05/10 03:27:48;;;;;;;2.88;1.40;;;19.30;88.90;;;20.85;46.45;99084.69;5072364;28;20027;-77
2021/05/10 03:30:22;;;;;;;3.80;1.25;;;19.30;89.40;;;20.85;46.15;99075.41;5070963;28;20126;-77
2021/05/10 03:32:49;;;;;;;3.58;1.33;;;19.40;87.50;;;20.97;46.19;99072.47;5072084;28;20466;-76
2021/05/10 03:35:17;;;;;;;4.22;1.73;;;19.40;88.20;;;20.96;46.39;99061.59;5072370;28;20279;-77
2021/05/10 03:37:44;;;;;;;2.28;1.30;;;19.40;89.00;;;20.97;46.24;99058.25;5071856;28;20021;-77
2021/05/10 03:40:14;;;;;;;3.05;1.33;;;19.40;89.10;;;20.97;46.37;99060.31;5073070;28;20033;-75
2021/05/10 03:42:41;;;;;;;2.67;0.95;;;19.30;89.10;;;20.92;45.96;99061.72;5073164;28;20021;-78
2021/05/10 03:45:11;;;;;;;1.95;1.15;;;19.40;87.70;;;20.93;46.10;99059.69;5088327;28;20420;-76
2021/05/10 03:47:41;;;;;;;3.25;1.65;;;19.30;88.80;;;20.81;46.58;99058.50;5072137;28;20047;-77
2021/05/10 03:50:13;;;;;;;2.88;1.48;;;19.20;89.90;;;20.70;46.90;99063.03;5072056;28;20124;-76
2021/05/10 03:52:41;;;;;;;3.10;1.30;;;19.10;90.60;;;20.62;47.02;99068.19;5072567;28;20029;-77
2021/05/10 03:55:14;;;;;;;3.00;1.40;;;19.00;91.40;;;20.54;46.97;99063.25;5072986;28;20036;-75
2021/05/10 03:57:41;;;;;;;1.67;1.23;;;18.90;91.60;;;20.48;47.38;99063.84;5072382;28;20039;-78
2021/05/10 04:00:11;;;;;;;3.50;1.75;;;18.80;92.90;;;20.34;48.04;99064.41;5072599;28;20025;-80
2021/05/10 04:02:39;;;;;;;3.92;1.73;;;18.70;94.50;;;20.25;48.42;99060.69;5088360;28;20054;-80
2021/05/10 04:15:35;;;;;;;3.15;1.35;;;18.40;98.20;;;19.90;49.61;99093.94;5093344;28;20085;-78
2021/05/10 04:18:00;;;;;;;10.85;1.48;;;18.30;99.00;;;19.83;49.94;99099.84;5092718;28;20397;-79
2021/05/10 04:20:26;;;;;;;1.70;1.30;;;18.20;99.60;;;19.76;50.55;99103.72;5092637;28;20048;-78
2021/05/10 04:22:52;;;;;;;1.88;0.93;;;18.10;99.90;;;19.69;50.78;99097.50;5091710;28;20020;-79
2021/05/10 04:25:18;;;;;;;1.92;1.13;;;18.10;99.90;;;19.61;50.67;99096.19;5093003;28;20111;-78
2021/05/10 04:27:46;;;;;;;2.97;1.63;;;18.00;99.90;;;19.63;50.95;99100.13;5108227;28;20511;-80
2021/05/10 04:30:14;;;;;;;3.13;1.10;;;18.00;99.90;;;19.67;50.80;99091.50;5092006;28;20020;-81
2021/05/10 04:32:39;;;;;;;4.60;1.65;;;18.00;99.90;;;19.71;50.94;99098.66;5092071;28;20405;-79
2021/05/10 04:35:07;;;;;;;3.03;1.20;;;18.10;99.90;;;19.74;51.21;99109.06;5092889;28;20024;-78
2021/05/10 04:37:33;;;;;;;5.80;1.55;;;18.00;99.90;;;19.63;53.39;99117.13;5091591;28;20084;-81
2021/05/10 04:39:59;;;;;;;5.78;1.63;;;17.90;99.90;;;19.41;53.26;99119.09;5093288;28;20044;-78
2021/05/10 04:42:25;;;;;;;5.07;1.55;;;17.80;99.90;;;19.43;53.01;99123.03;5093381;28;20161;-79
2021/05/10 04:44:51;;;;;;;3.40;1.25;;;17.80;99.90;;;19.55;52.40;99124.28;5093969;28;20150;-80
2021/05/10 04:47:17;;;;;;;3.70;1.52;;;17.90;99.90;;;19.73;51.96;99132.97;5096739;28;20032;-79
2021/05/10 04:49:43;;;;;;;2.63;1.42;;;18.10;99.90;;;19.90;50.97;99130.78;5096574;28;20122;-79
2021/05/10 04:52:09;;;;;;;5.03;1.40;;;18.20;99.90;;;20.11;49.66;99132.84;5096864;28;20032;-79
2021/05/10 04:54:36;;;;;;;3.17;1.33;;;18.50;99.90;;;20.48;48.82;99142.47;5096255;28;20024;-78
2021/05/10 04:57:02;;;;;;;3.75;1.30;;;18.90;99.90;;;20.71;48.38;99144.06;5096633;28;20028;-79
2021/05/10 04:59:28;;;;;;;1.33;1.00;;;19.10;98.40;;;20.92;47.91;99155.38;5098157;28;20482;-82
2021/05/10 05:01:54;;;;;;;5.18;1.90;;;19.40;97.30;;;21.06;47.16;99153.25;5098959;28;20077;-83
2021/05/10 05:04:20;;;;;;;1.88;1.02;;;19.60;95.20;;;21.16;47.19;99163.41;5100405;28;20028;-80
2021/05/10 05:06:46;;;;;;;2.75;1.15;;;19.70;94.00;;;21.30;46.81;99163.63;5099397;28;20035;-81
2021/05/10 05:09:11;;;;;;;4.85;1.52;;;19.90;92.60;;;21.47;46.54;99176.34;5094847;28;20024;-81
2021/05/10 05:11:37;;;;;;;2.53;1.30;;;20.00;91.90;;;21.61;45.97;99171.34;5087890;28;20088;-81
2021/05/10 05:14:04;;;;;;;3.45;1.08;;;20.10;90.30;;;21.52;46.05;99163.56;5091804;28;20045;-82
2021/05/10 05:16:31;;;;;;;3.22;1.30;;;20.20;88.40;;;21.66;46.09;99170.72;5091255;28;20468;-81
2021/05/10 05:18:57;;;;;;;2.47;1.13;;;20.20;89.30;;;21.72;45.08;99181.00;5075057;28;20033;-78
2021/05/10 05:21:23;;;;;;;4.10;1.23;;;20.40;84.50;;;21.78;44.84;99176.28;5081775;28;20060;-80
2021/05/10 05:23:49;;;;;;;6.20;1.35;;;20.50;82.00;;;22.07;44.68;99187.25;5076291;28;20028;-78
2021/05/10 05:26:15;;;;;;;1.48;1.20;;;20.80;80.40;;;22.21;44.36;99195.19;5075985;28;20044;-79
2021/05/10 05:28:41;;;;;;;5.97;1.23;;;20.90;79.30;;;22.37;43.95;99197.72;5075413;28;20039;-79
2021/05/10 05:31:07;;;;;;;3.67;1.40;;;21.00;78.10;;;22.36;44.29;99213.22;5091702;22;20048;-83
2021/05/10 05:33:33;;;;;;;3.08;1.00;;;21.10;77.60;;;22.29;43.94;99207.81;5081838;28;20459;-83
2021/05/10 05:35:59;;;;;;;5.13;1.70;;;21.20;76.00;;;22.32;44.66;99214.63;5064594;28;20060;-80
2021/05/10 05:38:27;;;;;;;3.42;1.17;;;21.30;77.10;;;22.27;44.75;99223.78;5066035;28;20086;-84
2021/05/10 05:40:53;;;;;;;2.22;1.17;;;21.20;76.90;;;22.19;45.29;99220.44;5081671;28;20050;-81
2021/05/10 05:43:19;;;;;;;1.60;1.08;;;21.10;78.80;;;22.13;45.88;99239.41;5095724;28;20025;-81
2021/05/10 05:45:45;;;;;;;6.20;1.15;;;21.00;81.00;;;21.93;46.13;99225.59;5088724;28;20039;-83
2021/05/10 05:48:12;;;;;;;7.63;1.17;;;20.90;81.70;;;21.62;47.21;99270.28;5062471;28;20062;-82
2021/05/10 05:50:39;;;;;;;8.57;1.55;;;20.70;84.80;;;21.57;47.72;99253.88;5084198;28;20543;-81
2021/05/10 05:53:06;;;;;;;4.55;1.05;;;20.60;87.70;;;21.52;47.83;99231.72;5079309;28;20545;-80
2021/05/10 05:55:33;;;;;;;3.13;1.10;;;20.50;89.50;;;21.55;47.77;99242.97;5093960;28;20048;-81
2021/05/10 05:58:01;;;;;;;3.50;1.48;;;20.50;90.40;;;21.41;48.66;99256.94;5068323;28;20102;-80
2021/05/10 06:00:28;;;;;;;2.55;1.00;;;20.40;91.30;;;21.44;48.86;99253.16;5081533;28;20387;-84
2021/05/10 06:02:54;;;;;;;5.45;1.50;;;20.30;92.60;;;21.41;49.03;99246.38;5082363;28;20025;-83
2021/05/10 06:05:20;;;;;;;2.97;1.10;;;20.20;93.90;;;21.30;49.09;99254.50;5088460;28;20070;-81
2021/05/10 06:07:48;;;;;;;4.13;1.27;;;20.20;94.00;;;21.32;49.63;99257.66;5094404;28;20027;-82
2021/05/10 06:10:20;;;;;;;4.90;1.38;;;20.20;95.50;;;21.28;49.78;99268.38;5095887;28;20045;-82
2021/05/10 06:12:52;;;;;;;3.13;1.02;;;20.20;95.50;;;21.34;49.49;99277.09;5086643;28;20127;-82
2021/05/10 06:15:22;;;;;;;7.00;1.38;;;20.20;96.50;;;21.24;50.14;99266.94;5087949;28;20111;-83
2021/05/10 06:17:50;;;;;;;4.20;1.50;;;20.10;97.30;;;21.24;50.14;99273.41;5105061;28;20027;-80
2021/05/10 06:20:18;;;;;;;3.92;1.60;;;20.00;97.90;;;21.24;50.37;99286.81;5088122;28;20025;-81
2021/05/10 06:22:45;;;;;;;5.05;1.52;;;20.10;98.20;;;21.29;50.28;99269.94;5110143;28;20101;-82
2021/05/10 06:25:15;;;;;;;2.28;1.15;;;20.10;98.60;;;21.11;50.33;99272.69;5084709;28;20487;-81
2021/05/10 06:27:42;;;;;;;5.78;1.48;;;20.10;98.10;;;21.33;50.09;99281.19;5072825;28;20031;-83
2021/05/10 06:30:11;;;;;;;3.88;1.40;;;20.20;98.10;;;21.21;50.83;99279.22;5079454;28;20031;-83
2021/05/10 06:32:39;;;;;;;4.45;1.33;;;20.20;98.80;;;21.40;50.65;99280.91;5082307;28;20028;-82
2021/05/10 06:35:06;;;;;;;2.92;1.20;;;20.10;99.70;;;21.29;51.48;99274.84;5082637;28;20029;-83
2021/05/10 06:37:34;;;;;;;2.60;1.30;;;20.00;99.90;;;21.29;50.93;99269.94;5084613;28;20024;-82
2021/05/10 06:40:00;;;;;;;4.20;1.40;;;20.00;99.90;;;21.28;51.17;99268.38;5080800;28;20033;-81
2021/05/10 06:42:27;;;;;;;6.32;1.40;;;20.00;99.90;;;21.37;51.12;99287.53;5079781;28;20029;-82
2021/05/10 06:44:54;;;;;;;2.67;1.30;;;20.00;99.90;;;21.15;50.89;99273.34;5080929;28;20021;-80
2021/05/10 06:47:21;;;;;;;1.55;1.15;;;20.00;99.90;;;21.34;51.10;99272.22;5081059;28;20035;-83
2021/05/10 06:49:47;;;;;;;3.17;1.70;;;20.10;99.90;;;21.13;51.50;99267.31;5079104;28;20117;-81
2021/05/10 06:52:13;;;;;;;2.83;1.38;;;20.00;99.90;;;21.19;51.41;99282.50;5081074;28;20048;-80
2021/05/10 06:54:39;;;;;;;3.15;1.67;;;20.10;99.90;;;21.34;51.10;99275.03;5080003;28;20467;-81
2021/05/10 06:57:06;;;;;;;3.83;1.40;;;20.00;99.90;;;21.26;51.21;99259.53;5081168;28;20033;-80
2021/05/10 06:59:32;;;;;;;3.47;1.35;;;20.10;99.90;;;21.27;51.71;99260.31;5080873;28;20490;-83
2021/05/10 07:01:58;;;;;;;3.75;1.40;;;20.10;99.90;;;21.24;51.31;99255.56;5081965;28;20033;-82
2021/05/10 07:04:24;;;;;;;4.50;1.55;;;20.10;99.90;;;21.26;51.62;99259.53;5081207;28;20112;-82
2021/05/10 07:06:50;;;;;;;3.50;1.70;;;20.10;99.90;;;21.41;51.34;99269.09;5080002;28;20067;-83
2021/05/10 07:09:16;;;;;;;3.38;1.20;;;20.10;99.90;;;21.42;51.43;99289.75;5087646;28;20053;-81
2021/05/10 07:11:42;;;;;;;3.88;1.60;;;20.20;99.90;;;21.89;50.97;99290.34;5102517;28;20023;-82
2021/05/10 07:14:07;;;;;;;1.88;1.10;;;20.50;99.90;;;22.01;50.11;99280.91;5101487;28;20093;-79
2021/05/10 07:16:36;;;;;;;2.25;1.17;;;20.70;99.90;;;21.81;50.35;99293.91;5100737;28;20049;-81
2021/05/10 07:19:02;;;;;;;7.00;1.85;;;20.70;99.70;;;21.79;49.97;99293.59;5101018;28;20098;-83
2021/05/10 07:21:29;;;;;;;3.15;1.35;;;20.60;99.10;;;21.86;50.60;99267.72;5083687;28;20024;-82
2021/05/10 07:23:55;;;;;;;3.38;1.20;;;20.60;99.90;;;22.54;48.44;99253.03;5097049;28;20031;-82
2021/05/10 07:26:21;;;;;;;2.65;1.20;;;21.10;97.60;;;23.51;46.17;99268.19;5082080;28;20417;-83
2021/05/10 07:28:47;;;;;;;5.03;1.35;;;21.80;93.40;;;23.73;45.56;99267.19;5087857;28;20149;-81
2021/05/10 07:31:13;;;;;;;5.63;1.40;;;22.30;89.50;;;24.02;45.18;99267.34;5083202;28;20410;-82
2021/05/10 07:33:39;;;;;;;3.67;1.20;;;22.70;85.30;;;24.11;44.66;99267.31;5091082;28;20608;-81
2021/05/10 07:36:05;;;;;;;3.05;0.93;;;22.80;81.50;;;24.18;43.69;99254.78;5099193;28;20052;-82
2021/05/10 07:38:31;;;;;;;5.80;1.20;;;23.00;77.20;;;24.22;43.33;99264.72;5084950;28;20510;-81
2021/05/10 07:40:58;;;;;;;1.60;1.30;;;23.10;74.80;;;24.80;42.64;99278.44;5080485;28;20024;-83
2021/05/10 07:43:24;;;;;;;3.22;0.95;;;23.30;74.30;;;24.93;42.90;99278.22;5082132;28;20040;-81
2021/05/10 07:45:51;;;;;;;1.55;0.90;;;23.60;74.60;;;25.27;40.59;99271.09;5082209;28;20032;-81
2021/05/10 07:48:17;;;;;;;3.33;0.90;;;23.90;68.20;;;25.44;39.23;99281.53;5081830;28;20077;-81
2021/05/10 07:50:44;;;;;;;1.83;0.88;;;24.00;65.30;;;25.26;39.19;99293.16;5094601;28;20047;-83
2021/05/10 07:53:13;;;;;;;2.35;0.85;;;23.90;63.60;;;24.87;40.41;99298.09;5088089;28;20028;-82
2021/05/10 07:55:39;;;;;;;2.22;0.73;;;23.80;64.00;;;24.98;39.32;99301.16;5081228;28;20054;-80
2021/05/10 07:58:06;;;;;;;1.08;0.73;;;23.80;62.40;;;24.83;39.61;99306.06;5085435;28;20028;-80
2021/05/10 08:00:38;;;;;;;1.80;0.65;;;23.60;62.80;;;24.63;40.49;99328.69;5082987;28;20032;-80
2021/05/10 08:03:08;;;;;;;1.65;0.57;;;23.50;63.60;;;24.40;40.81;99327.38;5081419;28;20028;-80
2021/05/10 08:05:41;;;;;;;2.55;0.82;;;23.30;64.40;;;24.48;41.17;99308.66;5081145;28;20046;-82
2021/05/10 08:08:09;;;;;;;1.48;0.65;;;23.30;65.10;;;23.99;42.81;99299.69;5080301;28;20111;-82
2021/05/10 08:10:35;;;;;;;3.15;0.68;;;23.00;66.90;;;24.69;41.22;99314.53;5100417;28;20052;-83
2021/05/10 08:13:01;;;;;;;1.70;0.60;;;23.20;67.20;;;24.60;40.27;99323.94;5084051;28;20032;-82
2021/05/10 08:15:27;;;;;;;3.65;0.77;;;23.30;64.40;;;24.15;42.27;99325.00;5101404;28;20035;-83
2021/05/10 08:17:54;;;;;;;2.60;0.80;;;23.10;66.00;;;24.60;41.64;99321.09;5102690;28;20024;-82
2021/05/10 08:20:19;;;;;;;1.35;0.88;;;23.20;66.30;;;24.92;41.93;99311.69;5104608;28;20103;-80
2021/05/10 08:22:45;;;;;;;2.35;1.10;;;23.50;67.90;;;24.89;40.78;99335.50;5106314;28;20032;-78
2021/05/10 08:25:13;;;;;;;1.95;0.90;;;23.50;65.10;;;23.90;42.33;99351.03;5112637;28;20035;-78
2021/05/10 08:27:40;;;;;;;3.35;0.90;;;23.00;66.10;;;23.40;43.98;99344.03;5118299;28;20052;-82
2021/05/10 08:30:11;;;;;;;3.03;1.10;;;22.40;69.50;;;22.66;45.94;99358.69;5105789;28;20068;-81
2021/05/10 08:32:39;;;;;;;3.55;1.20;;;21.80;73.00;;;22.40;46.78;99343.91;5086573;28;20047;-81
2021/05/10 08:35:09;;;;;;;4.03;0.80;;;21.50;77.70;;;22.37;46.66;99339.16;5106443;28;20038;-81
2021/05/10 08:37:38;;;;;;;3.10;0.90;;;21.40;79.40;;;22.60;46.39;99339.34;5108556;28;20028;-79
2021/05/10 08:40:06;;;;;;;2.78;1.30;;;21.40;81.80;;;22.63;46.66;99336.84;5117737;28;20024;-83
2021/05/10 08:42:32;;;;;;;5.47;1.30;;;21.40;83.30;;;22.97;46.44;99345.94;5105080;28;20027;-81
2021/05/10 08:45:00;;;;;;;2.97;0.95;;;21.50;85.10;;;23.20;45.80;99341.66;5087017;28;20032;-82
2021/05/10 08:47:33;;;;;;;3.25;1.02;;;21.70;83.30;;;23.38;45.29;99324.53;5104831;28;20028;-82
2021/05/10 08:50:06;;;;;;;4.28;1.40;;;22.10;80.50;;;22.99;45.64;99351.13;5104261;28;20084;-82
2021/05/10 08:52:35;;;;;;;2.65;1.17;;;21.90;78.00;;;22.97;46.00;99357.31;5103149;28;20399;-82
2021/05/10 08:55:04;;;;;;;3.60;1.13;;;21.80;80.00;;;23.14;45.74;99365.56;5103862;28;20470;-82
2021/05/10 08:57:29;;;;;;;2.38;1.17;;;21.80;82.10;;;22.99;45.71;99359.66;5103525;28;20035;-85
2021/05/10 08:59:55;;;;;;;2.92;1.00;;;21.90;78.70;;;23.27;46.04;99349.88;5102921;28;20028;-83
2021/05/10 09:02:34;;;;;;;1.27;1.00;;;22.00;81.70;;;23.28;46.06;99365.69;5085285;28;20031;-83
2021/05/10 09:05:17;;;;;;;3.03;1.38;;;22.10;80.80;;;23.10;45.79;99383.59;5104206;28;20076;-82
2021/05/10 09:07:45;;;;;;;2.35;0.90;;;22.00;79.80;;;23.04;46.76;99368.41;5106958;28;20049;-80
2021/05/10 09:10:17;;;;;;;1.40;0.85;;;21.90;83.60;;;22.83;47.08;99360.00;5088603;28;20040;-81
2021/05/10 09:12:51;;;;;;;2.97;1.35;;;21.70;84.20;;;22.67;47.23;99360.28;5083448;28;20062;-81
2021/05/10 09:15:32;;;;;;;2.83;1.00;;;21.40;86.30;;;22.46;48.24;99390.38;5084463;28;20028;-81
2021/05/10 09:18:09;;;;;;;4.03;1.10;;;21.10;91.40;;;22.10;49.14;99418.66;5084235;28;20032;-82
2021/05/10 09:20:41;;;;;;;3.53;0.82;;;20.90;94.00;;;21.82;49.67;99427.03;5084190;28;20047;-83
2021/05/10 09:23:14;;;;;;;1.88;0.85;;;20.70;95.20;;;21.45;49.69;99440.16;5087476;28;20080;-81
2021/05/10 09:25:55;;;;;;;2.38;0.93;;;20.40;94.80;;;21.37;49.46;99443.72;5097505;28;20021;-81
2021/05/10 09:28:25;;;;;;;1.20;1.00;;;20.20;94.70;;;21.39;49.82;99458.25;5096918;28;20115;-80
2021/05/10 09:31:05;;;;;;;3.72;0.90;;;20.10;96.50;;;21.41;50.34;99459.41;5096442;28;20036;-78
2021/05/10 09:33:32;;;;;;;2.97;0.95;;;20.10;98.40;;;21.11;50.58;99467.78;5098464;28;20102;-79
2021/05/10 09:36:07;;;;;;;2.15;0.95;;;19.90;98.60;;;21.21;50.63;99458.09;5082142;28;20028;-79
2021/05/10 09:38:39;;;;;;;3.08;0.50;;;19.90;99.40;;;21.43;50.79;99456.88;5082730;28;20029;-83
2021/05/10 09:41:08;;;;;;;3.70;0.80;;;20.00;99.90;;;21.34;50.37;99481.56;5080142;28;20033;-81
2021/05/10 09:43:39;;;;;;;1.23;0.50;;;20.00;99.50;;;21.25;50.09;99487.16;5082257;28;20089;-83
2021/05/10 09:46:13;;;;;;;2.85;0.70;;;20.00;98.40;;;21.26;50.41;99486.69;5080585;28;20054;-81
2021/05/10 09:48:42;;;;;;;0.90;0.50;;;20.00;98.80;;;21.28;49.97;99501.25;5080239;28;20044;-82
2021/05/10 09:51:16;;;;;;;4.13;0.65;;;20.00;98.90;;;21.47;50.14;99493.69;5083282;28;20078;-79
2021/05/10 09:53:53;;;;;;;2.83;0.60;;;20.00;99.50;;;21.62;49.61;99508.16;5089919;28;20060;-81
2021/05/10 09:56:25;;;;;;;2.30;0.52;;;20.30;98.40;;;21.64;49.23;99509.28;5093626;28;20029;-80
2021/05/10 09:59:03;;;;;;;1.27;0.40;;;20.40;96.70;;;21.73;48.91;99529.28;5096173;28;20028;-79
2021/05/10 10:01:47;;;;;;;3.75;0.90;;;20.50;95.70;;;21.78;49.06;99525.81;5096310;28;20035;-80
2021/05/10 10:04:20;;;;;;;3.03;0.60;;;20.60;95.40;;;22.11;48.12;99529.09;5083961;28;20028;-81
2021/05/10 10:06:47;;;;;;;0.85;0.47;;;20.80;94.70;;;22.50;47.56;99539.00;5081570;28;20095;-84
2021/05/10 10:09:14;;;;;;;3.88;0.60;;;21.20;93.80;;;22.99;46.84;99548.41;5089520;28;20441;-82
2021/05/10 10:11:41;;;;;;;1.35;0.55;;;21.30;93.10;;;22.37;47.30;99544.78;5101491;28;20031;-82
2021/05/10 10:14:09;;;;;;;2.22;0.60;;;21.10;91.60;;;21.86;48.50;99547.06;5101306;28;20035;-81
2021/05/10 10:16:36;;;;;;;1.50;0.60;;;20.80;92.70;;;21.47;49.72;99553.34;5082633;28;20028;-82
2021/05/10 10:19:06;;;;;;;2.17;0.50;;;20.50;94.90;;;21.70;49.13;99552.13;5103128;28;20032;-83
2021/05/10 10:21:35;;;;;;;2.65;0.68;;;20.50;95.00;;;21.84;48.04;99568.66;5101957;28;20020;-83
2021/05/10 10:24:09;;;;;;;4.90;0.80;;;20.60;93.50;;;21.68;48.71;99566.78;5083341;28;20223;-82
2021/05/10 10:26:38;;;;;;;1.38;0.43;;;20.50;94.10;;;21.96;49.00;99559.34;5084456;28;20035;-83
2021/05/10 10:29:15;;;;;;;1.48;0.43;;;20.60;95.40;;;22.24;47.51;99566.00;5102790;28;20034;-83
2021/05/10 10:31:49;;;;;;;1.88;0.75;;;20.90;92.60;;;22.58;46.95;99563.84;5084438;28;20134;-80
2021/05/10 10:34:25;;;;;;;1.23;0.60;;;21.20;91.50;;;22.95;46.23;99562.00;5101618;28;20035;-82
2021/05/10 10:36:57;;;;;;;;;;;21.50;90.60;;;23.02;46.59;99581.63;5101997;28;20115;-82